Time;durP1;ratioP1;P1;durP2;ratioP2;P2;SDS_P1;SDS_P2;PMS_P1;PMS_P2;Temp;Humidity;BMP_temperature;BMP_pressure;BME280_temperature;BME280_humidity;BME280_pressure;Samples;Min_cycle;Max_cycle;Signal;HPM_P1;HPM_P2
2023/08/27 00:00:16;;;;;;;6.82;5.22;;;;;;;17.97;84.29;96196.97;6215290;23;20075;-79
2023/08/27 00:02:44;;;;;;;7.63;5.13;;;;;;;18.06;85.72;96201.63;6214757;23;20589;-78
2023/08/27 00:05:12;;;;;;;7.05;5.13;;;;;;;18.15;85.64;96201.22;6215243;23;20107;-78
2023/08/27 00:07:39;;;;;;;7.03;5.22;;;;;;;18.18;85.97;96196.28;6214505;23;20025;-79
2023/08/27 00:10:09;;;;;;;5.90;5.30;;;;;;;18.24;87.68;96207.72;6214531;23;20021;-78
2023/08/27 00:12:37;;;;;;;4.88;4.47;;;;;;;18.24;84.41;96191.88;6214543;23;20022;-78
2023/08/27 00:15:06;;;;;;;7.50;5.00;;;;;;;18.20;81.56;96188.13;6214714;23;20024;-79
2023/08/27 00:17:35;;;;;;;5.88;4.50;;;;;;;18.17;81.57;96186.75;6214737;23;20083;-78
2023/08/27 00:20:06;;;;;;;7.57;5.28;;;;;;;18.17;81.41;96188.59;6214185;23;20373;-78
2023/08/27 00:22:34;;;;;;;5.07;4.57;;;;;;;18.18;82.35;96179.63;6214324;23;20025;-77
2023/08/27 00:25:02;;;;;;;5.35;4.85;;;;;;;18.21;82.46;96181.78;6215721;23;20028;-80
2023/08/27 00:27:33;;;;;;;5.68;5.15;;;;;;;18.24;83.74;96197.16;6214291;23;20462;-76
2023/08/27 00:30:03;;;;;;;5.13;4.72;;;;;;;18.25;83.39;96206.66;6214531;23;20023;-78
2023/08/27 00:32:33;;;;;;;6.00;5.40;;;;;;;18.27;84.49;96202.75;6215669;23;20028;-78
2023/08/27 00:35:00;;;;;;;6.15;4.90;;;;;;;18.26;82.02;96192.44;6216722;23;20024;-79
2023/08/27 00:37:28;;;;;;;6.32;5.15;;;;;;;18.26;82.86;96190.59;6216572;23;20024;-79
2023/08/27 00:39:56;;;;;;;7.32;4.78;;;;;;;18.26;81.94;96180.03;6217022;23;20516;-77
2023/08/27 00:42:23;;;;;;;5.85;4.90;;;;;;;18.24;82.28;96179.47;6218183;23;20029;-77
2023/08/27 00:44:52;;;;;;;5.93;4.57;;;;;;;18.22;81.49;96193.97;6218975;23;20466;-78
2023/08/27 00:47:20;;;;;;;6.35;5.75;;;;;;;18.24;83.25;96197.16;6218194;23;20396;-77
2023/08/27 00:49:48;;;;;;;6.15;5.07;;;;;;;18.22;81.30;96204.53;6216785;23;20071;-78
2023/08/27 00:52:17;;;;;;;5.13;4.72;;;;;;;18.16;80.17;96200.19;6217367;23;20412;-79
2023/08/27 00:54:46;;;;;;;4.68;4.28;;;;;;;18.14;80.59;96205.72;6216698;23;20024;-80
2023/08/27 00:57:15;;;;;;;5.47;4.97;;;;;;;18.12;80.56;96221.78;6219923;23;20082;-77
2023/08/27 00:59:43;;;;;;;5.40;4.63;;;;;;;18.11;80.45;96220.19;6220662;23;20021;-78
2023/08/27 01:02:12;;;;;;;5.82;4.70;;;;;;;18.10;79.95;96223.88;6219947;23;20051;-78
2023/08/27 01:04:40;;;;;;;4.80;4.40;;;;;;;18.08;79.26;96210.13;6220591;23;20032;-77
2023/08/27 01:07:15;;;;;;;4.80;4.30;;;;;;;18.05;79.29;96205.28;6220233;23;20405;-77
2023/08/27 01:09:51;;;;;;;5.80;5.20;;;;;;;18.02;79.20;96189.94;6220000;23;20450;-77
2023/08/27 01:12:24;;;;;;;5.25;4.75;;;;;;;17.98;79.08;96182.75;6220803;23;20104;-78
2023/08/27 01:14:53;;;;;;;5.85;5.25;;;;;;;17.92;79.44;96161.53;6221041;23;20335;-77
2023/08/27 01:17:23;;;;;;;6.32;3.90;;;;;;;17.91;79.55;96153.88;6220327;23;20353;-76
2023/08/27 01:19:51;;;;;;;5.53;3.97;;;;;;;17.89;80.19;96151.47;6220673;23;20382;-77
2023/08/27 01:22:20;;;;;;;5.07;4.57;;;;;;;17.96;81.88;96155.81;6220880;23;20020;-77
2023/08/27 01:24:48;;;;;;;4.45;4.05;;;;;;;18.01;82.93;96153.22;6220189;23;20079;-78
2023/08/27 01:27:22;;;;;;;4.43;4.03;;;;;;;18.04;82.77;96150.94;6219853;23;20028;-77
2023/08/27 01:29:58;;;;;;;4.80;4.30;;;;;;;18.12;86.35;96158.41;6219553;23;20469;-77
2023/08/27 01:32:31;;;;;;;4.93;4.32;;;;;;;18.18;84.90;96169.88;6218957;23;20021;-77
2023/08/27 01:35:03;;;;;;;5.00;4.10;;;;;;;18.19;85.79;96160.94;6219081;23;20103;-77
2023/08/27 01:37:32;;;;;;;3.75;3.42;;;;;;;18.16;82.21;96152.69;6218899;23;20024;-76
2023/08/27 01:40:01;;;;;;;4.68;3.03;;;;;;;18.15;82.02;96153.72;6219220;23;20075;-77
2023/08/27 01:42:29;;;;;;;4.15;3.53;;;;;;;18.14;81.01;96155.56;6218296;23;20032;-77
2023/08/27 01:44:57;;;;;;;5.03;3.78;;;;;;;18.10;80.35;96171.09;6218296;23;20029;-77
2023/08/27 01:47:25;;;;;;;3.72;3.42;;;;;;;18.15;82.86;96188.03;6218448;23;20073;-76
2023/08/27 01:49:52;;;;;;;4.90;4.40;;;;;;;18.25;83.99;96188.19;6218981;23;20352;-77
2023/08/27 01:52:20;;;;;;;5.78;3.97;;;;;;;18.26;82.25;96189.81;6218479;23;20025;-78
2023/08/27 01:54:49;;;;;;;5.90;4.45;;;;;;;18.24;80.85;96189.25;6219165;23;20024;-79
2023/08/27 01:57:16;;;;;;;6.32;4.72;;;;;;;18.20;80.09;96185.47;6218878;23;20025;-78
2023/08/27 01:59:44;;;;;;;5.50;4.13;;;;;;;18.12;80.05;96190.09;6218891;23;20024;-76
2023/08/27 02:02:12;;;;;;;5.20;4.68;;;;;;;18.14;82.75;96192.50;6217927;23;20024;-76
2023/08/27 02:04:39;;;;;;;8.00;4.03;;;;;;;18.15;81.15;96185.38;6218739;23;20024;-76
2023/08/27 02:07:07;;;;;;;5.28;4.78;;;;;;;18.10;80.05;96178.19;6218797;23;20027;-76
2023/08/27 02:09:34;;;;;;;9.13;4.88;;;;;;;18.06;80.32;96171.78;6188853;23;20025;-80
2023/08/27 02:12:04;;;;;;;6.07;5.00;;;;;;;18.08;82.57;96170.53;6188248;23;20048;-77
2023/08/27 02:14:32;;;;;;;8.35;5.30;;;;;;;18.08;80.91;96172.34;6188475;23;20096;-78
2023/08/27 02:16:59;;;;;;;5.75;4.78;;;;;;;18.05;80.27;96168.34;6188165;23;20029;-79
2023/08/27 02:19:27;;;;;;;7.72;5.97;;;;;;;18.00;79.88;96156.94;6188496;23;20021;-77
2023/08/27 02:21:54;;;;;;;5.15;4.65;;;;;;;17.96;80.04;96158.44;6187675;23;20029;-78
2023/08/27 02:24:22;;;;;;;7.82;6.65;;;;;;;17.92;79.93;96153.63;6187831;23;20102;-79
2023/08/27 02:26:50;;;;;;;10.45;5.65;;;;;;;17.91;79.94;96156.53;6188257;23;20071;-79
2023/08/27 02:29:18;;;;;;;11.38;6.25;;;;;;;17.86;80.18;96149.31;6187945;23;20060;-79
2023/08/27 02:31:46;;;;;;;7.47;6.57;;;;;;;17.83;80.17;96139.22;6187738;23;20080;-78
2023/08/27 02:34:14;;;;;;;6.85;6.15;;;;;;;17.81;80.55;96145.75;6186833;23;20027;-76
2023/08/27 02:36:42;;;;;;;7.90;6.57;;;;;;;17.80;80.33;96149.41;6187196;23;20025;-76
2023/08/27 02:39:09;;;;;;;7.50;6.60;;;;;;;17.78;80.37;96151.53;6190158;23;20350;-77
2023/08/27 02:41:37;;;;;;;7.03;6.32;;;;;;;17.75;80.34;96159.91;6187291;23;20025;-78
2023/08/27 02:44:05;;;;;;;8.88;6.57;;;;;;;17.74;80.67;96163.59;6187087;23;20024;-77
2023/08/27 02:46:34;;;;;;;6.50;5.85;;;;;;;17.73;80.67;96169.88;6187490;23;20025;-78
2023/08/27 02:49:02;;;;;;;5.65;5.15;;;;;;;17.73;81.91;96167.25;6187344;23;20032;-78
2023/08/27 02:51:30;;;;;;;9.20;6.05;;;;;;;17.74;81.29;96171.50;6187762;23;20045;-77
2023/08/27 02:53:57;;;;;;;6.00;5.40;;;;;;;17.78;83.97;96173.41;6186704;23;20362;-78
2023/08/27 02:56:25;;;;;;;7.65;6.07;;;;;;;17.82;82.33;96174.59;6186866;23;20458;-79
2023/08/27 02:58:52;;;;;;;5.60;5.10;;;;;;;17.83;82.13;96167.47;6186803;23;20080;-76
2023/08/27 03:01:21;;;;;;;6.88;5.55;;;;;;;17.85;81.79;96168.03;6186585;23;20055;-76
2023/08/27 03:03:51;;;;;;;6.93;6.22;;;;;;;17.90;84.35;96165.47;6186439;23;20029;-78
2023/08/27 03:06:19;;;;;;;7.05;5.90;;;;;;;17.99;85.16;96166.66;6186366;23;20076;-79
2023/08/27 03:08:46;;;;;;;7.38;6.32;;;;;;;18.07;86.50;96166.28;6203002;23;20075;-78
2023/08/27 03:11:14;;;;;;;8.45;6.63;;;;;;;18.14;86.25;96178.50;6214599;23;20454;-77
2023/08/27 03:13:42;;;;;;;7.80;6.28;;;;;;;18.17;86.89;96178.03;6214596;23;20078;-78
2023/08/27 03:16:09;;;;;;;7.32;6.07;;;;;;;18.21;87.44;96176.50;6214754;23;20028;-78
2023/08/27 03:18:37;;;;;;;7.30;6.03;;;;;;;18.22;85.98;96178.13;6214562;23;20024;-78
2023/08/27 03:21:06;;;;;;;7.68;6.88;;;;;;;18.23;88.12;96172.59;6214184;23;20454;-77
2023/08/27 03:23:35;;;;;;;7.20;6.38;;;;;;;18.24;87.57;96176.03;6214402;23;20047;-77
2023/08/27 03:26:03;;;;;;;5.95;5.45;;;;;;;18.25;87.88;96172.34;6214773;23;20071;-77
2023/08/27 03:28:31;;;;;;;6.60;5.95;;;;;;;18.23;85.66;96172.59;6214799;23;20032;-78
2023/08/27 03:31:02;;;;;;;7.57;6.25;;;;;;;18.20;86.33;96165.16;6214562;23;20027;-77
2023/08/27 03:33:31;;;;;;;6.60;6.03;;;;;;;18.19;86.37;96157.47;6214748;23;20028;-77
2023/08/27 03:36:00;;;;;;;7.15;6.10;;;;;;;18.15;85.60;96156.34;6214285;23;20493;-77
2023/08/27 03:38:29;;;;;;;10.60;6.80;;;;;;;18.17;87.52;96154.25;6214520;23;20393;-77
2023/08/27 03:40:57;;;;;;;7.00;6.35;;;;;;;18.22;88.34;96159.66;6214353;23;20017;-77
2023/08/27 03:43:24;;;;;;;8.25;6.78;;;;;;;18.25;88.32;96161.78;6213167;23;20202;-77
2023/08/27 03:45:52;;;;;;;8.32;6.85;;;;;;;18.25;88.47;96159.94;6212749;23;20052;-77
2023/08/27 03:48:21;;;;;;;6.80;6.07;;;;;;;18.19;84.71;96160.09;6211862;23;20029;-77
2023/08/27 03:50:48;;;;;;;6.72;6.05;;;;;;;18.09;84.25;96169.47;6211949;23;20047;-77
2023/08/27 03:53:16;;;;;;;9.20;5.90;;;;;;;18.03;83.89;96165.16;6212191;23;20082;-77
2023/08/27 03:55:45;;;;;;;6.40;5.38;;;;;;;17.99;84.50;96174.56;6212983;23;20075;-77
2023/08/27 03:58:13;;;;;;;6.72;5.95;;;;;;;17.97;84.11;96170.59;6212698;23;20024;-77
2023/08/27 04:00:41;;;;;;;7.05;6.43;;;;;;;17.93;83.43;96165.00;6213932;23;20017;-78
2023/08/27 04:03:08;;;;;;;7.25;6.55;;;;;;;17.85;83.49;96152.19;6214227;23;20028;-77
2023/08/27 04:05:38;;;;;;;7.22;5.88;;;;;;;17.81;83.64;96161.59;6212680;23;20103;-77
2023/08/27 04:08:06;;;;;;;6.32;5.70;;;;;;;17.77;83.54;96166.53;6213764;23;20024;-77
2023/08/27 04:10:33;;;;;;;7.43;6.65;;;;;;;17.75;83.54;96162.53;6214223;23;20079;-77
2023/08/27 04:13:03;;;;;;;5.90;5.40;;;;;;;17.74;83.77;96171.50;6213773;23;20474;-77
2023/08/27 04:15:30;;;;;;;5.85;5.22;;;;;;;17.71;83.62;96172.78;6214280;23;20035;-77
2023/08/27 04:17:58;;;;;;;5.40;4.90;;;;;;;17.66;83.77;96177.94;6214216;23;20083;-77
2023/08/27 04:20:28;;;;;;;6.13;5.10;;;;;;;17.63;84.01;96171.31;6214153;23;20096;-77
2023/08/27 04:22:55;;;;;;;6.10;5.22;;;;;;;17.63;84.00;96173.16;6213637;23;20470;-78
2023/08/27 04:25:23;;;;;;;5.28;4.78;;;;;;;17.61;84.11;96173.38;6214271;23;20361;-77
2023/08/27 04:27:51;;;;;;;7.70;4.88;;;;;;;17.62;84.35;96180.28;6214260;23;20079;-77
2023/08/27 04:30:20;;;;;;;4.65;4.25;;;;;;;17.63;84.67;96179.22;6214016;23;20075;-77
2023/08/27 04:32:47;;;;;;;5.47;4.97;;;;;;;17.67;85.50;96182.19;6213585;23;20536;-77
2023/08/27 04:35:15;;;;;;;5.72;5.22;;;;;;;17.76;86.42;96179.97;6214289;23;20075;-77
2023/08/27 04:37:44;;;;;;;6.05;5.18;;;;;;;17.81;85.97;96183.50;6213795;23;20070;-77
2023/08/27 04:40:12;;;;;;;6.05;5.45;;;;;;;17.83;85.10;96178.00;6214367;23;20029;-77
2023/08/27 04:42:41;;;;;;;6.80;6.18;;;;;;;17.82;84.45;96182.50;6213583;23;20466;-77
2023/08/27 04:45:10;;;;;;;6.35;5.75;;;;;;;17.86;85.48;96174.88;6214155;23;20031;-77
2023/08/27 04:47:39;;;;;;;5.53;5.10;;;;;;;17.86;84.53;96169.59;6213982;23;20021;-77
2023/08/27 04:50:08;;;;;;;6.20;5.60;;;;;;;17.86;84.46;96162.53;6214170;23;20031;-77
2023/08/27 04:52:36;;;;;;;6.55;5.60;;;;;;;17.85;84.25;96154.84;6213553;23;20021;-77
2023/08/27 04:55:05;;;;;;;8.18;5.97;;;;;;;17.83;84.10;96152.44;6214033;23;20024;-77
2023/08/27 04:57:33;;;;;;;5.80;5.22;;;;;;;17.83;84.23;96151.63;6213631;23;20063;-77
2023/08/27 05:00:04;;;;;;;8.07;5.70;;;;;;;17.84;85.02;96142.66;6214031;23;20028;-77
2023/08/27 05:02:31;;;;;;;6.80;6.10;;;;;;;17.89;85.92;96148.03;6213284;23;20021;-77
2023/08/27 05:05:00;;;;;;;6.15;5.50;;;;;;;17.95;85.88;96144.44;6214091;23;20025;-77
2023/08/27 05:07:28;;;;;;;6.00;5.40;;;;;;;17.97;84.82;96139.72;6213946;23;20027;-77
2023/08/27 05:09:56;;;;;;;5.70;5.10;;;;;;;17.97;84.74;96131.78;6213909;23;20021;-77
2023/08/27 05:12:24;;;;;;;6.53;4.50;;;;;;;17.99;84.56;96119.16;6213681;23;20021;-77
2023/08/27 05:14:51;;;;;;;4.63;4.20;;;;;;;18.01;84.22;96124.22;6213903;23;20028;-77
2023/08/27 05:17:19;;;;;;;4.88;4.40;;;;;;;18.00;84.13;96115.50;6214462;23;20047;-77
2023/08/27 05:19:46;;;;;;;6.70;4.10;;;;;;;17.99;83.95;96103.31;6215860;23;20024;-77
2023/08/27 05:22:15;;;;;;;3.35;3.05;;;;;;;17.98;83.82;96109.66;6215753;23;20028;-77
2023/08/27 05:24:43;;;;;;;3.35;3.05;;;;;;;17.97;83.79;96101.97;6216172;23;20074;-77
2023/08/27 05:27:11;;;;;;;3.00;2.70;;;;;;;17.96;84.18;96095.09;6216478;23;20025;-77
2023/08/27 05:29:38;;;;;;;4.53;2.90;;;;;;;17.95;84.35;96099.59;6216141;23;20492;-77
2023/08/27 05:32:06;;;;;;;2.97;2.53;;;;;;;17.99;85.67;96100.69;6215469;23;20016;-77
2023/08/27 05:34:34;;;;;;;4.75;3.15;;;;;;;18.06;86.45;96090.78;6215852;23;20331;-77
2023/08/27 05:37:02;;;;;;;3.40;2.50;;;;;;;18.10;86.16;96081.34;6215509;23;20131;-77
2023/08/27 05:39:31;;;;;;;5.03;3.33;;;;;;;18.15;85.31;96079.78;6215831;23;20028;-77
2023/08/27 05:41:58;;;;;;;5.00;4.50;;;;;;;18.14;86.34;96070.28;6215008;23;20016;-77
2023/08/27 05:44:26;;;;;;;4.90;4.43;;;;;;;18.15;88.06;96053.41;6215538;23;20397;-77
2023/08/27 05:46:54;;;;;;;4.80;4.40;;;;;;;18.08;85.63;96046.47;6215773;23;20079;-77
2023/08/27 05:49:21;;;;;;;5.07;4.57;;;;;;;18.01;85.04;96059.03;6215563;23;20027;-77
2023/08/27 05:51:49;;;;;;;5.88;4.75;;;;;;;18.01;86.73;96068.78;6215631;23;20025;-77
2023/08/27 05:54:16;;;;;;;5.20;3.78;;;;;;;18.05;86.94;96073.34;6215184;23;20025;-77
2023/08/27 05:56:45;;;;;;;5.60;5.03;;;;;;;18.12;87.15;96091.66;6215635;23;20025;-77
2023/08/27 05:59:14;;;;;;;6.63;5.05;;;;;;;18.19;87.72;96094.13;6215917;23;20024;-77
2023/08/27 06:01:42;;;;;;;5.55;4.47;;;;;;;18.21;87.70;96094.66;6215863;23;20513;-77
2023/08/27 06:04:09;;;;;;;4.90;4.35;;;;;;;18.28;88.84;96082.13;6215518;23;20020;-77
2023/08/27 06:06:38;;;;;;;5.72;4.25;;;;;;;18.29;86.42;96075.78;6216131;23;20029;-77
2023/08/27 06:09:05;;;;;;;5.07;4.32;;;;;;;18.28;86.69;96087.41;6214884;23;20083;-77
2023/08/27 06:11:33;;;;;;;5.15;4.13;;;;;;;18.31;88.33;96105.38;6215132;23;20025;-77
2023/08/27 06:14:02;;;;;;;5.32;3.97;;;;;;;18.37;88.74;96101.78;6215198;23;20020;-77
2023/08/27 06:16:30;;;;;;;4.82;4.32;;;;;;;18.43;88.22;96098.19;6215566;23;20025;-77
2023/08/27 06:18:58;;;;;;;4.65;4.13;;;;;;;18.49;89.51;96085.81;6215289;23;20032;-77
2023/08/27 06:21:26;;;;;;;7.85;3.65;;;;;;;18.46;86.54;96076.53;6215082;23;20025;-77
2023/08/27 06:23:54;;;;;;;4.32;3.90;;;;;;;18.47;87.28;96091.34;6215297;23;20036;-77
2023/08/27 06:26:22;;;;;;;5.38;3.90;;;;;;;18.45;85.41;96096.06;6215442;23;20024;-77
2023/08/27 06:28:49;;;;;;;7.30;4.28;;;;;;;18.44;85.58;96105.03;6214794;23;20025;-77
2023/08/27 06:31:18;;;;;;;5.22;3.90;;;;;;;18.50;88.53;96117.28;6215310;23;20024;-77
2023/08/27 06:33:46;;;;;;;4.32;3.50;;;;;;;18.52;88.20;96119.69;6214626;23;20021;-77
2023/08/27 06:36:13;;;;;;;3.88;3.47;;;;;;;18.56;89.37;96119.97;6215416;23;20032;-77
2023/08/27 06:38:41;;;;;;;3.25;2.92;;;;;;;18.52;86.45;96131.03;6215080;23;20103;-77
2023/08/27 06:41:09;;;;;;;5.75;3.85;;;;;;;18.52;85.09;96128.41;6215253;23;20031;-76
2023/08/27 06:43:36;;;;;;;5.13;4.13;;;;;;;18.52;84.36;96130.25;6214659;23;20055;-77
2023/08/27 06:46:04;;;;;;;4.70;3.42;;;;;;;18.53;86.27;96122.06;6215069;23;20028;-77
2023/08/27 06:48:33;;;;;;;4.00;3.63;;;;;;;18.56;85.73;96126.06;6214587;23;20477;-77
2023/08/27 06:51:01;;;;;;;5.07;3.55;;;;;;;18.61;88.19;96128.00;6215154;23;20074;-77
2023/08/27 06:53:28;;;;;;;3.97;3.67;;;;;;;18.64;87.76;96138.06;6214332;23;20458;-77
2023/08/27 06:55:56;;;;;;;5.35;4.05;;;;;;;18.69;88.40;96138.09;6214988;23;20025;-77
2023/08/27 06:58:24;;;;;;;6.57;4.20;;;;;;;18.77;89.73;96127.13;6215084;23;20032;-77
2023/08/27 07:00:52;;;;;;;4.18;3.58;;;;;;;18.79;86.32;96111.06;6214935;23;20048;-77
2023/08/27 07:03:20;;;;;;;4.10;3.22;;;;;;;18.81;86.01;96114.25;6215156;23;20043;-77
2023/08/27 07:05:49;;;;;;;5.75;3.83;;;;;;;18.85;87.23;96124.09;6215203;23;20029;-78
2023/08/27 07:08:19;;;;;;;4.10;3.70;;;;;;;18.91;87.30;96123.13;6214383;23;20368;-77
2023/08/27 07:10:49;;;;;;;8.93;6.57;;;;;;;18.97;86.09;96133.75;6214623;23;20489;-77
2023/08/27 07:13:17;;;;;;;84.25;60.25;;;;;;;18.97;84.41;96131.09;6214216;23;20388;-77
2023/08/27 07:15:44;;;;;;;26.05;19.65;;;;;;;18.99;86.37;96139.56;6214381;23;20544;-77
2023/08/27 07:18:15;;;;;;;8.07;6.63;;;;;;;19.06;87.15;96140.19;6214791;23;20051;-77
2023/08/27 07:20:42;;;;;;;5.32;4.22;;;;;;;19.09;87.21;96145.78;6214972;23;20025;-78
2023/08/27 07:23:11;;;;;;;4.97;3.85;;;;;;;19.12;87.32;96144.50;6214691;23;20067;-78
2023/08/27 07:25:39;;;;;;;6.25;3.67;;;;;;;19.13;87.45;96138.97;6214780;23;20520;-78
2023/08/27 07:28:06;;;;;;;4.03;3.63;;;;;;;19.14;86.07;96142.41;6215083;23;20032;-77
2023/08/27 07:30:34;;;;;;;6.22;4.00;;;;;;;19.17;86.54;96151.69;6214344;23;20033;-78
2023/08/27 07:33:02;;;;;;;24.48;8.73;;;;;;;19.19;86.03;96160.16;6214633;23;20036;-78
2023/08/27 07:35:31;;;;;;;12.43;10.05;;;;;;;19.17;84.34;96163.03;6214342;23;20020;-78
2023/08/27 07:37:58;;;;;;;8.00;6.35;;;;;;;19.09;83.52;96171.44;6214664;23;20044;-76
2023/08/27 07:40:29;;;;;;;6.90;5.50;;;;;;;19.04;84.25;96177.44;6213946;23;20024;-77
2023/08/27 07:42:57;;;;;;;8.95;4.88;;;;;;;19.00;83.69;96178.16;6214088;23;20027;-77
2023/08/27 07:45:25;;;;;;;8.55;5.38;;;;;;;18.96;83.05;96179.69;6214251;23;20079;-77
2023/08/27 07:47:52;;;;;;;5.65;4.60;;;;;;;18.92;82.94;96176.75;6214368;23;20050;-78
2023/08/27 07:50:20;;;;;;;7.15;5.05;;;;;;;18.91;83.69;96165.41;6214330;23;20024;-77
2023/08/27 07:52:48;;;;;;;7.18;4.53;;;;;;;18.92;84.50;96159.06;6213998;23;20070;-77
2023/08/27 07:55:16;;;;;;;5.00;4.50;;;;;;;18.98;85.62;96154.66;6214095;23;20029;-77
2023/08/27 07:57:45;;;;;;;5.63;4.28;;;;;;;19.03;83.92;96152.06;6214596;23;20083;-79
2023/08/27 08:00:14;;;;;;;17.60;13.80;;;;;;;19.06;83.73;96150.75;6214466;23;20028;-77
2023/08/27 08:02:42;;;;;;;16.60;13.65;;;;;;;19.05;84.00;96133.31;6214466;23;20067;-78
2023/08/27 08:05:10;;;;;;;8.80;7.00;;;;;;;19.09;85.16;96140.50;6218986;23;20048;-82
2023/08/27 08:07:38;;;;;;;6.38;5.45;;;;;;;19.13;83.61;96132.84;6228515;23;20054;-78
2023/08/27 08:10:06;;;;;;;8.00;4.70;;;;;;;19.17;83.62;96149.03;6227743;23;20024;-77
2023/08/27 08:12:34;;;;;;;7.28;4.43;;;;;;;19.22;84.59;96155.19;6217450;23;20052;-78
2023/08/27 08:15:03;;;;;;;4.22;3.83;;;;;;;19.25;83.50;96157.34;6214858;23;20409;-77
2023/08/27 08:17:31;;;;;;;4.65;3.38;;;;;;;19.29;82.89;96160.28;6214832;23;20020;-78
2023/08/27 08:20:12;;;;;;;3.47;2.80;;;;;;;19.31;83.66;96159.00;6214582;23;20021;-78
2023/08/27 08:22:40;;;;;;;4.60;3.47;;;;;;;19.34;82.57;96165.63;6213993;23;20047;-78
2023/08/27 08:25:08;;;;;;;5.45;3.05;;;;;;;19.32;81.18;96165.88;6214835;23;20362;-78
2023/08/27 08:27:36;;;;;;;3.67;3.08;;;;;;;19.30;80.65;96173.25;6214155;23;20082;-78
2023/08/27 08:30:06;;;;;;;2.88;2.67;;;;;;;19.31;80.88;96192.56;6213996;23;20024;-78
2023/08/27 08:32:34;;;;;;;3.75;2.60;;;;;;;19.31;80.85;96197.88;6214069;23;20393;-77
2023/08/27 08:35:02;;;;;;;3.63;2.65;;;;;;;19.30;80.15;96207.63;6214095;23;20025;-77
2023/08/27 08:37:29;;;;;;;3.53;2.75;;;;;;;19.34;82.31;96214.03;6214267;23;20024;-77
2023/08/27 08:39:57;;;;;;;5.85;3.13;;;;;;;19.40;83.27;96214.09;6213770;23;20025;-78
2023/08/27 08:42:32;;;;;;;4.35;2.90;;;;;;;19.42;83.53;96217.28;6214003;23;20021;-76
2023/08/27 08:45:09;;;;;;;4.32;3.15;;;;;;;19.41;81.89;96226.25;6214795;23;20028;-78
2023/08/27 08:47:37;;;;;;;6.20;4.53;;;;;;;19.42;83.04;96233.16;6214477;23;20021;-78
2023/08/27 08:50:08;;;;;;;58.92;47.58;;;;;;;19.45;83.25;96237.94;6214590;23;20025;-78
2023/08/27 08:52:38;;;;;;;10.85;8.23;;;;;;;19.46;83.42;96234.25;6215218;23;20367;-78
2023/08/27 08:55:09;;;;;;;4.55;3.58;;;;;;;19.47;85.11;96239.28;6216213;23;20028;-79
2023/08/27 08:57:38;;;;;;;2.90;2.55;;;;;;;19.45;83.88;96227.38;6215698;23;20070;-79
2023/08/27 09:00:11;;;;;;;2.85;2.22;;;;;;;19.46;83.10;96239.53;6215584;23;20032;-79
2023/08/27 09:02:39;;;;;;;4.97;2.93;;;;;;;19.47;82.06;96235.84;6213402;23;20099;-78
2023/08/27 09:05:10;;;;;;;2.60;2.33;;;;;;;19.47;81.23;96241.94;6214929;23;20465;-78
2023/08/27 09:07:38;;;;;;;3.75;2.55;;;;;;;19.50;81.50;96248.59;6215929;23;20025;-76
2023/08/27 09:10:09;;;;;;;2.20;2.00;;;;;;;19.52;82.10;96241.19;6212826;23;20082;-74
2023/08/27 09:12:40;;;;;;;2.50;2.30;;;;;;;19.55;82.98;96230.94;6214927;23;20413;-75
2023/08/27 09:15:10;;;;;;;3.30;2.75;;;;;;;19.59;84.72;96227.78;6215283;23;20034;-75
2023/08/27 09:17:38;;;;;;;3.45;2.33;;;;;;;19.57;81.95;96225.41;6215246;23;20029;-74
2023/08/27 09:20:07;;;;;;;3.63;2.53;;;;;;;19.57;80.89;96225.41;6214950;23;20622;-75
2023/08/27 09:22:35;;;;;;;4.07;2.78;;;;;;;19.55;80.19;96217.72;6215378;23;20021;-75
2023/08/27 09:25:05;;;;;;;6.53;2.53;;;;;;;19.54;79.79;96202.06;6215382;23;20082;-75
2023/08/27 09:27:33;;;;;;;3.28;2.50;;;;;;;19.55;80.70;96190.47;6215475;23;20028;-76
2023/08/27 09:30:01;;;;;;;3.00;2.53;;;;;;;19.59;81.47;96183.63;6215638;23;20075;-76
2023/08/27 09:32:30;;;;;;;3.17;2.30;;;;;;;19.61;79.81;96178.84;6215095;23;20028;-75
2023/08/27 09:34:59;;;;;;;2.92;2.50;;;;;;;19.61;78.91;96173.56;6215142;23;20067;-75
2023/08/27 09:37:28;;;;;;;3.72;2.78;;;;;;;19.62;78.80;96185.75;6215369;23;20029;-75
2023/08/27 09:39:56;;;;;;;5.85;2.28;;;;;;;19.67;78.85;96185.81;6215165;23;20488;-75
2023/08/27 09:42:24;;;;;;;2.92;2.63;;;;;;;19.72;78.50;96193.84;6215017;23;20101;-76
2023/08/27 09:44:52;;;;;;;5.68;2.88;;;;;;;19.74;78.45;96194.41;6214824;23;20603;-75
2023/08/27 09:47:31;;;;;;;5.78;4.97;;;;;;;19.78;78.28;96191.25;6213181;23;20021;-76
2023/08/27 09:50:00;;;;;;;3.15;2.50;;;;;;;19.77;77.19;96193.09;6212594;23;20462;-75
2023/08/27 09:52:27;;;;;;;2.55;2.10;;;;;;;19.78;78.06;96183.28;6213136;23;20024;-75
2023/08/27 09:54:55;;;;;;;10.75;2.92;;;;;;;19.84;79.62;96177.00;6213153;23;20091;-75
2023/08/27 09:57:23;;;;;;;3.45;2.58;;;;;;;19.88;77.58;96172.81;6213372;23;20017;-75
2023/08/27 09:59:51;;;;;;;7.45;2.45;;;;;;;19.90;76.13;96162.78;6213041;23;20098;-76
2023/08/27 10:02:20;;;;;;;1.95;1.75;;;;;;;19.91;75.04;96156.41;6215161;23;20032;-75
2023/08/27 10:04:55;;;;;;;3.28;2.22;;;;;;;19.93;78.41;96154.31;6215994;23;20024;-75
2023/08/27 10:07:23;;;;;;;3.17;2.13;;;;;;;19.97;77.92;96155.41;6215952;23;20070;-75
2023/08/27 10:09:52;;;;;;;3.88;2.05;;;;;;;20.03;77.59;96154.41;6215613;23;20361;-76
2023/08/27 10:12:21;;;;;;;4.05;1.75;;;;;;;20.03;75.38;96159.72;6214899;23;20025;-74
2023/08/27 10:14:49;;;;;;;2.53;2.05;;;;;;;20.07;78.70;96157.34;6220798;23;20024;-75
2023/08/27 10:17:17;;;;;;;1.60;1.40;;;;;;;20.09;75.07;96163.19;6224442;23;20070;-75
2023/08/27 10:19:45;;;;;;;2.22;1.77;;;;;;;20.14;76.95;96166.69;6218594;23;20024;-75
2023/08/27 10:22:14;;;;;;;1.73;1.40;;;;;;;20.19;78.40;96167.78;6215878;23;20025;-74
2023/08/27 10:24:42;;;;;;;1.83;1.63;;;;;;;20.22;78.80;96165.41;6215622;23;20381;-76
2023/08/27 10:27:10;;;;;;;1.85;1.42;;;;;;;20.21;74.70;96160.38;6215357;23;20454;-75
2023/08/27 10:29:40;;;;;;;2.03;1.50;;;;;;;20.23;77.70;96159.06;6215152;23;20472;-76
2023/08/27 10:32:08;;;;;;;1.85;1.60;;;;;;;20.25;74.80;96169.41;6214530;23;20035;-76
2023/08/27 10:34:36;;;;;;;1.90;1.40;;;;;;;20.26;72.67;96163.84;6215022;23;20075;-75
2023/08/27 10:37:07;;;;;;;1.55;1.35;;;;;;;20.25;73.04;96150.88;6214993;23;20021;-75
2023/08/27 10:39:37;;;;;;;2.85;1.35;;;;;;;20.27;73.71;96143.44;6214986;23;20028;-74
2023/08/27 10:42:05;;;;;;;1.83;1.40;;;;;;;20.30;75.22;96150.91;6214595;23;20025;-74
2023/08/27 10:44:33;;;;;;;2.92;1.55;;;;;;;20.30;74.38;96137.66;6214615;23;20067;-76
2023/08/27 10:47:07;;;;;;;3.63;2.10;;;;;;;20.31;73.69;96145.34;6214823;23;20025;-74
2023/08/27 10:49:36;;;;;;;2.88;1.55;;;;;;;20.32;73.06;96157.53;6215073;23;20074;-75
2023/08/27 10:52:13;;;;;;;1.45;1.15;;;;;;;20.28;73.79;96151.16;6214942;23;20087;-75
2023/08/27 10:54:42;;;;;;;5.93;3.13;;;;;;;20.27;72.33;96154.03;6214656;23;20605;-76
2023/08/27 10:57:17;;;;;;;5.15;3.97;;;;;;;20.25;71.45;96156.16;6214975;23;20020;-75
2023/08/27 10:59:45;;;;;;;5.22;2.25;;;;;;;20.27;72.88;96154.03;6216038;23;20504;-76
2023/08/27 11:02:15;;;;;;;5.25;2.15;;;;;;;20.29;73.67;96154.59;6226521;23;20051;-76
2023/08/27 11:04:47;;;;;;;2.35;2.15;;;;;;;20.30;75.70;96164.94;6221462;23;20385;-77
2023/08/27 11:07:15;;;;;;;4.20;2.28;;;;;;;20.33;76.05;96168.91;6225605;23;20343;-77
2023/08/27 11:09:48;;;;;;;4.10;1.73;;;;;;;20.32;74.75;96169.97;6225899;23;20067;-76
2023/08/27 11:12:24;;;;;;;3.05;1.45;;;;;;;20.31;74.13;96171.03;6225780;23;20087;-76
2023/08/27 11:14:52;;;;;;;1.70;1.40;;;;;;;20.25;73.23;96162.25;6215882;23;20059;-76
2023/08/27 11:17:25;;;;;;;3.50;1.33;;;;;;;20.24;75.99;96159.84;6214830;23;20516;-77
2023/08/27 11:19:54;;;;;;;2.03;1.40;;;;;;;20.22;74.42;96161.97;6214463;23;20100;-76
2023/08/27 11:22:23;;;;;;;4.32;1.88;;;;;;;20.23;75.89;96163.56;6214039;23;20028;-76
2023/08/27 11:24:53;;;;;;;2.47;1.35;;;;;;;20.23;74.65;96163.56;6214480;23;20016;-76
2023/08/27 11:27:22;;;;;;;3.22;1.33;;;;;;;20.23;74.53;96160.91;6214309;23;20536;-77
2023/08/27 11:29:51;;;;;;;3.00;1.27;;;;;;;20.24;75.42;96163.28;6214719;23;20024;-77
2023/08/27 11:32:20;;;;;;;5.10;1.80;;;;;;;20.23;74.99;96168.88;6214298;23;20023;-77
2023/08/27 11:34:50;;;;;;;2.25;1.50;;;;;;;20.22;75.71;96178.63;6214510;23;20055;-77
2023/08/27 11:37:20;;;;;;;1.63;1.45;;;;;;;20.17;72.76;96181.25;6214830;23;20508;-77
2023/08/27 11:39:48;;;;;;;2.10;1.63;;;;;;;20.12;72.93;96195.25;6214478;23;20027;-77